createdAt,value
2022-12-22T00:04:47.118Z,82.63
2022-12-22T00:10:12.812Z,82.69
2022-12-22T00:15:35.480Z,82.91
2022-12-22T00:20:55.896Z,83.23
2022-12-22T01:11:47.939Z,84.94
2022-12-22T01:17:08.553Z,84.51
2022-12-22T01:50:50.889Z,84.35
2022-12-22T01:56:11.621Z,83.92
2022-12-22T02:12:26.908Z,83.05
2022-12-22T02:18:09.947Z,82.88
2022-12-22T02:23:51.769Z,82.64
2022-12-22T02:29:12.763Z,82.64
2022-12-22T02:40:35.711Z,82.87
2022-12-22T02:57:25.934Z,82.96
2022-12-22T03:02:46.832Z,83.14
2022-12-22T03:19:49.393Z,83.49
2022-12-22T03:25:10.065Z,83.53
2022-12-22T03:30:11.892Z,83.30
2022-12-22T03:35:13.555Z,83.18
2022-12-22T03:40:21.898Z,83.17
2022-12-22T03:45:42.416Z,83.32
2022-12-22T03:50:44.784Z,83.45
2022-12-22T03:55:46.565Z,83.62
2022-12-22T04:00:48.321Z,83.58
2022-12-22T04:05:49.979Z,83.56
2022-12-22T04:11:10.388Z,83.81
2022-12-22T04:16:12.729Z,84.03
2022-12-22T04:21:14.430Z,84.16
2022-12-22T04:26:16.121Z,84.21
2022-12-22T04:31:18.483Z,84.11
2022-12-22T04:36:20.354Z,83.92
2022-12-22T04:41:22.029Z,84.00
2022-12-22T04:46:23.850Z,84.14
2022-12-22T04:51:25.624Z,84.34
2022-12-22T04:56:27.452Z,84.73
2022-12-22T05:01:29.439Z,84.84
2022-12-22T05:06:31.281Z,84.85
2022-12-22T05:11:33.023Z,84.84
2022-12-22T05:16:34.718Z,84.95
2022-12-22T05:21:36.381Z,85.08
2022-12-22T05:26:38.211Z,85.06
2022-12-22T05:31:46.810Z,85.02
2022-12-22T05:36:49.116Z,85.16
2022-12-22T05:41:50.850Z,85.18
2022-12-22T05:46:52.657Z,85.26
2022-12-22T05:51:55.874Z,85.44
2022-12-22T05:56:57.541Z,85.60
2022-12-22T06:01:59.427Z,85.74
2022-12-22T06:07:01.126Z,85.71
2022-12-22T06:12:03.114Z,85.64
2022-12-22T06:17:04.889Z,85.66
2022-12-22T06:22:06.668Z,85.72
2022-12-22T06:27:08.903Z,85.65
2022-12-22T06:32:10.589Z,85.67
2022-12-22T06:37:12.425Z,85.82
2022-12-22T06:42:32.709Z,85.89
2022-12-22T06:47:34.412Z,85.91
2022-12-22T06:52:36.245Z,85.96
2022-12-22T06:57:37.974Z,86.17
2022-12-22T07:02:40.219Z,86.39
2022-12-22T07:07:42.417Z,86.43
2022-12-22T07:12:44.128Z,86.31
2022-12-22T07:17:45.855Z,86.13
2022-12-22T07:22:47.923Z,85.90
2022-12-22T07:27:49.601Z,85.75
2022-12-22T07:32:51.329Z,85.72
2022-12-22T07:37:53.262Z,85.67
2022-12-22T07:42:59.358Z,85.57
2022-12-22T07:48:23.062Z,85.38
2022-12-22T07:53:24.671Z,85.18
2022-12-22T07:58:26.419Z,84.96
2022-12-22T08:03:28.606Z,84.80
2022-12-22T08:08:30.658Z,84.49
2022-12-22T08:13:32.712Z,83.91
2022-12-22T08:18:35.345Z,83.57
2022-12-22T08:23:37.139Z,83.26
2022-12-22T08:28:44.837Z,83.01
2022-12-22T08:33:47.479Z,82.95
2022-12-22T08:38:49.472Z,82.53
2022-12-22T08:43:51.160Z,81.87
2022-12-22T08:48:52.843Z,81.38
2022-12-22T08:54:09.663Z,81.11
2022-12-22T08:59:12.162Z,81.00
2022-12-22T09:04:15.875Z,81.00
2022-12-22T09:09:18.716Z,80.44
2022-12-22T09:14:20.415Z,79.71
2022-12-22T09:19:22.595Z,79.56
2022-12-22T09:24:24.275Z,79.50
2022-12-22T09:29:26.116Z,78.79
2022-12-22T09:34:27.848Z,77.59
2022-12-22T09:39:29.815Z,75.93
2022-12-22T09:44:40.322Z,75.49
2022-12-22T09:49:42.389Z,76.23
2022-12-22T09:54:44.040Z,77.04
2022-12-22T09:59:45.892Z,77.67
2022-12-22T10:05:06.629Z,78.22
2022-12-22T10:10:25.314Z,78.71
2022-12-22T10:15:34.258Z,78.81
2022-12-22T10:20:38.460Z,78.75
2022-12-22T10:26:26.714Z,78.52
2022-12-22T10:31:14.696Z,76.89
2022-12-22T10:36:23.932Z,76.10
2022-12-22T10:41:29.232Z,75.72
2022-12-22T10:46:58.218Z,75.39
2022-12-22T10:52:09.205Z,75.50
2022-12-22T10:57:13.845Z,75.53
2022-12-22T11:02:22.617Z,75.57
2022-12-22T11:07:24.662Z,75.48
2022-12-22T11:12:44.609Z,75.04
2022-12-22T11:18:08.331Z,73.96
2022-12-22T11:23:26.376Z,73.47
2022-12-22T11:28:36.445Z,72.30
2022-12-22T11:34:21.225Z,72.07
2022-12-22T11:39:34.593Z,71.81
2022-12-22T11:44:46.331Z,72.76
2022-12-22T11:51:09.224Z,72.77
2022-12-22T11:55:40.524Z,73.00
2022-12-22T12:01:16.248Z,73.47
2022-12-22T12:06:48.177Z,73.20
2022-12-22T12:12:13.256Z,73.76
2022-12-22T12:17:36.129Z,74.85
2022-12-22T12:22:56.746Z,75.96
2022-12-22T12:28:13.130Z,76.65
2022-12-22T12:33:35.593Z,76.71
2022-12-22T12:39:15.401Z,76.67
2022-12-22T12:44:21.358Z,77.13
2022-12-22T12:49:34.935Z,77.77
2022-12-22T12:54:44.198Z,77.99
2022-12-22T12:59:46.517Z,77.85
2022-12-22T13:05:07.930Z,77.81
2022-12-22T13:10:21.232Z,77.87
2022-12-22T13:15:38.197Z,77.97
2022-12-22T13:20:41.169Z,77.95
2022-12-22T13:25:50.851Z,77.91
2022-12-22T13:31:03.893Z,78.00
2022-12-22T13:36:15.475Z,78.16
2022-12-22T13:41:26.892Z,78.48
2022-12-22T13:46:32.470Z,79.08
2022-12-22T13:51:37.002Z,79.71
2022-12-22T13:56:43.284Z,80.25
2022-12-22T14:01:56.599Z,80.43
2022-12-22T14:07:13.713Z,80.50
2022-12-22T14:12:18.675Z,80.53
2022-12-22T14:17:33.686Z,80.62
2022-12-22T14:22:39.811Z,80.78
2022-12-22T14:27:46.360Z,80.92
2022-12-22T14:32:55.191Z,81.12
2022-12-22T14:38:18.926Z,81.48
2022-12-22T14:43:20.522Z,81.93
2022-12-22T14:48:30.025Z,82.06
2022-12-22T14:53:43.340Z,82.22
2022-12-22T14:58:46.663Z,82.43
2022-12-22T15:04:17.152Z,82.65
2022-12-22T15:09:33.356Z,82.49
2022-12-22T15:14:42.816Z,82.45
2022-12-22T15:19:44.695Z,82.46
2022-12-22T15:24:47.888Z,82.30
2022-12-22T15:29:49.623Z,82.16
2022-12-22T15:34:51.403Z,82.17
2022-12-22T15:39:53.118Z,81.93
2022-12-22T15:44:54.769Z,81.68
2022-12-22T15:49:56.508Z,81.51
2022-12-22T15:54:58.474Z,81.37
2022-12-22T16:00:00.309Z,81.17
2022-12-22T16:05:01.978Z,80.98
2022-12-22T16:10:05.973Z,80.85
2022-12-22T16:15:13.802Z,80.60
2022-12-22T16:20:15.707Z,80.38
2022-12-22T16:25:21.886Z,80.17
2022-12-22T16:30:26.259Z,79.98
2022-12-22T16:35:29.979Z,79.90
2022-12-22T16:40:33.519Z,80.06
2022-12-22T16:45:36.623Z,80.10
2022-12-22T16:50:38.265Z,80.07
2022-12-22T16:55:41.072Z,80.07
2022-12-22T17:00:45.165Z,80.09
2022-12-22T17:05:51.483Z,80.09
2022-12-22T17:10:56.422Z,80.27
2022-12-22T17:15:58.218Z,80.34
2022-12-22T17:21:00.453Z,80.28
2022-12-22T17:26:06.107Z,80.19
2022-12-22T17:31:08.002Z,80.12
2022-12-22T17:36:18.762Z,80.15
2022-12-22T17:41:20.784Z,80.24
2022-12-22T17:46:22.801Z,80.42
2022-12-22T17:51:28.137Z,80.60
2022-12-22T17:56:31.385Z,81.02
2022-12-22T18:01:33.923Z,81.29
2022-12-22T18:06:39.395Z,81.53
2022-12-22T18:11:45.905Z,81.69
2022-12-22T18:16:48.242Z,81.81
2022-12-22T18:21:50.068Z,81.82
2022-12-22T18:26:51.898Z,81.72
2022-12-22T18:31:53.854Z,81.62
2022-12-22T18:36:56.069Z,81.53
2022-12-22T18:41:58.443Z,81.41
2022-12-22T18:47:00.347Z,81.26
2022-12-22T18:52:02.195Z,80.96
2022-12-22T18:57:16.501Z,81.11
2022-12-22T19:02:29.682Z,81.18
2022-12-22T19:07:31.453Z,81.17
2022-12-22T19:12:34.350Z,81.05
2022-12-22T19:17:37.085Z,80.63
2022-12-22T19:22:38.740Z,80.28
2022-12-22T19:27:40.781Z,80.24
2022-12-22T19:32:47.805Z,80.20
2022-12-22T19:37:51.752Z,80.05
2022-12-22T19:42:56.523Z,79.87
2022-12-22T19:47:58.253Z,79.62
2022-12-22T19:53:00.019Z,79.42
2022-12-22T19:58:02.752Z,79.28
2022-12-22T20:03:06.181Z,79.13
2022-12-22T20:08:08.261Z,79.05
2022-12-22T20:13:21.133Z,79.05
2022-12-22T20:18:27.548Z,79.03
2022-12-22T20:23:31.326Z,79.19
2022-12-22T20:28:36.631Z,79.38
2022-12-22T20:33:40.981Z,79.46
2022-12-22T20:38:44.146Z,79.59
2022-12-22T20:43:47.919Z,79.92
2022-12-22T20:48:54.501Z,80.20
2022-12-22T20:53:57.380Z,80.46
2022-12-22T20:59:01.864Z,80.58
2022-12-22T21:04:03.470Z,80.57
2022-12-22T21:09:05.708Z,80.55
2022-12-22T21:14:07.362Z,80.59
2022-12-22T21:19:16.236Z,80.70
2022-12-22T21:24:18.843Z,80.79
2022-12-22T21:29:25.437Z,80.98
2022-12-22T21:34:28.644Z,81.12
2022-12-22T21:39:42.653Z,81.20
2022-12-22T21:44:45.175Z,81.38
2022-12-22T21:49:46.979Z,81.43
2022-12-22T21:54:48.630Z,81.51
2022-12-22T21:59:50.345Z,81.60
2022-12-22T22:04:54.969Z,81.75
2022-12-22T22:09:57.342Z,81.89
2022-12-22T22:15:05.654Z,81.93
2022-12-22T22:20:09.115Z,82.00
2022-12-22T22:25:11.704Z,82.20
2022-12-22T22:30:22.192Z,82.35
2022-12-22T22:35:27.164Z,82.48
2022-12-22T22:40:28.819Z,82.66
2022-12-22T22:45:30.597Z,82.92
2022-12-22T22:50:32.712Z,83.17
2022-12-22T22:55:34.484Z,83.44
2022-12-22T23:00:36.123Z,83.80
2022-12-22T23:05:37.781Z,84.15
2022-12-22T23:10:42.120Z,84.46
2022-12-22T23:15:56.345Z,84.71
2022-12-22T23:20:59.174Z,84.92
2022-12-22T23:26:01.235Z,85.12
2022-12-22T23:31:02.989Z,85.28
2022-12-22T23:36:05.329Z,85.41
2022-12-22T23:41:10.752Z,85.44
2022-12-22T23:46:15.103Z,85.42
2022-12-22T23:51:16.743Z,85.53
2022-12-22T23:56:18.629Z,85.73
